createdAt,value
2017-12-27T00:01:53.590Z,3.60
2017-12-27T00:04:26.557Z,3.53
2017-12-27T00:06:59.661Z,3.50
2017-12-27T00:09:32.825Z,3.45
2017-12-27T00:12:05.825Z,3.46
2017-12-27T00:14:38.865Z,3.42
2017-12-27T00:20:11.784Z,3.33
2017-12-27T00:22:44.975Z,3.28
2017-12-27T00:25:17.991Z,3.25
2017-12-27T00:30:52.239Z,3.19
2017-12-27T00:33:19.733Z,3.16
2017-12-27T00:35:47.194Z,3.12
2017-12-27T00:38:14.669Z,3.10
2017-12-27T00:40:42.132Z,3.02
2017-12-27T00:43:09.620Z,2.97
2017-12-27T00:45:37.083Z,2.87
2017-12-27T00:48:04.523Z,2.75
2017-12-27T00:50:31.986Z,2.70
2017-12-27T00:52:59.440Z,2.61
2017-12-27T00:55:26.921Z,2.61
2017-12-27T00:57:54.374Z,2.65
2017-12-27T01:00:21.823Z,2.71
2017-12-27T01:02:49.315Z,2.74
2017-12-27T01:05:16.764Z,2.79
2017-12-27T01:07:44.250Z,2.70
2017-12-27T01:10:11.713Z,2.61
2017-12-27T01:12:39.175Z,2.60
2017-12-27T01:15:06.614Z,2.64
2017-12-27T01:17:34.097Z,2.66
2017-12-27T01:20:01.551Z,2.68
2017-12-27T01:22:28.994Z,2.69
2017-12-27T01:24:56.456Z,2.74
2017-12-27T01:27:23.911Z,2.75
2017-12-27T01:29:51.374Z,2.71
2017-12-27T01:32:18.829Z,2.64
2017-12-27T01:34:46.296Z,2.58
2017-12-27T01:37:13.738Z,2.56
2017-12-27T01:39:41.202Z,2.48
2017-12-27T01:42:08.651Z,2.44
2017-12-27T01:44:36.120Z,2.45
2017-12-27T01:47:11.608Z,2.46
2017-12-27T01:49:39.084Z,2.40
2017-12-27T01:52:06.540Z,2.35
2017-12-27T01:54:33.993Z,2.18
2017-12-27T01:57:01.470Z,2.09
2017-12-27T01:59:28.923Z,1.96
2017-12-27T02:01:56.374Z,1.90
2017-12-27T02:04:23.823Z,1.90
2017-12-27T02:06:51.286Z,1.76
2017-12-27T02:09:18.735Z,1.76
2017-12-27T02:11:46.450Z,1.80
2017-12-27T02:14:13.923Z,1.79
2017-12-27T02:16:41.383Z,1.80
2017-12-27T02:19:08.842Z,1.92
2017-12-27T02:21:36.295Z,2.04
2017-12-27T02:24:03.758Z,2.14
2017-12-27T02:26:31.217Z,2.20
2017-12-27T02:28:58.705Z,2.21
2017-12-27T02:31:26.162Z,2.26
2017-12-27T02:33:53.625Z,2.22
2017-12-27T02:36:21.087Z,2.27
2017-12-27T02:38:57.143Z,2.30
2017-12-27T02:41:24.615Z,2.29
2017-12-27T02:43:52.167Z,2.25
2017-12-27T02:46:19.660Z,2.29
2017-12-27T02:48:47.112Z,2.30
2017-12-27T02:51:14.605Z,2.29
2017-12-27T02:53:42.080Z,2.24
2017-12-27T02:56:09.539Z,2.09
2017-12-27T02:58:36.997Z,2.07
2017-12-27T03:01:04.525Z,2.03
2017-12-27T03:03:32.084Z,1.96
2017-12-27T03:05:59.578Z,1.99
2017-12-27T03:08:27.386Z,1.92
2017-12-27T03:10:54.858Z,1.93
2017-12-27T03:13:22.431Z,1.93
2017-12-27T03:15:49.910Z,1.89
2017-12-27T03:18:17.371Z,1.84
2017-12-27T03:20:44.830Z,1.78
2017-12-27T03:23:12.319Z,1.71
2017-12-27T03:25:39.780Z,1.67
2017-12-27T03:28:07.230Z,1.65
2017-12-27T03:30:34.686Z,1.56
2017-12-27T03:33:02.202Z,1.56
2017-12-27T03:35:29.665Z,1.58
2017-12-27T03:37:57.242Z,1.54
2017-12-27T03:40:24.769Z,1.50
2017-12-27T03:42:52.214Z,1.52
2017-12-27T03:45:19.651Z,1.42
2017-12-27T03:47:47.124Z,1.41
2017-12-27T03:50:14.588Z,1.47
2017-12-27T03:52:42.059Z,1.52
2017-12-27T03:55:09.528Z,1.46
2017-12-27T03:57:37.421Z,1.37
2017-12-27T04:00:04.871Z,1.28
2017-12-27T04:02:32.417Z,1.17
2017-12-27T04:04:59.953Z,1.08
2017-12-27T04:07:27.429Z,1.00
2017-12-27T04:09:54.867Z,0.97
2017-12-27T04:12:22.313Z,0.97
2017-12-27T04:14:49.772Z,0.90
2017-12-27T04:17:17.231Z,0.88
2017-12-27T04:19:44.714Z,0.87
2017-12-27T04:22:12.265Z,0.81
2017-12-27T04:24:39.784Z,0.75
2017-12-27T04:27:07.231Z,0.79
2017-12-27T04:29:34.694Z,0.76
2017-12-27T04:32:02.160Z,0.75
2017-12-27T04:34:29.615Z,0.84
2017-12-27T04:36:57.075Z,0.89
2017-12-27T04:39:24.528Z,1.02
2017-12-27T04:41:51.975Z,1.10
2017-12-27T04:44:19.416Z,1.08
2017-12-27T04:46:46.889Z,1.09
2017-12-27T04:49:14.328Z,1.11
2017-12-27T04:51:41.785Z,1.17
2017-12-27T04:54:09.235Z,1.40
2017-12-27T04:56:36.721Z,1.68
2017-12-27T04:59:04.168Z,2.00
2017-12-27T05:01:31.611Z,2.20
2017-12-27T05:03:59.196Z,2.37
2017-12-27T05:06:26.720Z,2.47
2017-12-27T05:08:54.278Z,2.50
2017-12-27T05:11:21.750Z,2.57
2017-12-27T05:13:49.341Z,2.59
2017-12-27T05:16:16.783Z,2.66
2017-12-27T05:18:44.253Z,2.73
2017-12-27T05:21:11.697Z,2.73
2017-12-27T05:23:39.139Z,2.72
2017-12-27T05:26:06.589Z,2.71
2017-12-27T05:28:34.076Z,2.74
2017-12-27T05:31:01.525Z,2.71
2017-12-27T05:33:28.983Z,2.77
2017-12-27T05:35:56.433Z,2.89
2017-12-27T05:38:23.874Z,2.93
2017-12-27T05:40:51.336Z,2.97
2017-12-27T05:43:18.882Z,3.02
2017-12-27T05:45:46.402Z,3.09
2017-12-27T05:48:13.849Z,3.07
2017-12-27T05:50:41.324Z,3.09
2017-12-27T05:53:08.868Z,3.20
2017-12-27T05:55:36.323Z,3.23
2017-12-27T05:58:03.779Z,3.31
2017-12-27T06:00:31.231Z,3.39
2017-12-27T06:02:58.704Z,3.40
2017-12-27T06:05:26.219Z,3.41
2017-12-27T06:07:53.696Z,3.40
2017-12-27T06:10:21.144Z,3.38
2017-12-27T06:12:48.639Z,3.32
2017-12-27T06:15:16.086Z,3.33
2017-12-27T06:17:43.564Z,3.36
2017-12-27T06:20:11.024Z,3.35
2017-12-27T06:22:38.458Z,3.45
2017-12-27T06:25:05.924Z,3.47
2017-12-27T06:27:33.397Z,3.50
2017-12-27T06:30:00.927Z,3.48
2017-12-27T06:32:28.392Z,3.56
2017-12-27T06:34:55.859Z,3.62
2017-12-27T06:37:23.335Z,3.67
2017-12-27T06:39:50.776Z,3.73
2017-12-27T06:42:18.235Z,3.77
2017-12-27T06:44:45.677Z,3.81
2017-12-27T06:47:13.128Z,3.80
2017-12-27T06:49:40.557Z,3.75
2017-12-27T06:52:08.063Z,3.76
2017-12-27T06:54:35.516Z,3.67
2017-12-27T06:57:02.998Z,3.64
2017-12-27T06:59:30.465Z,3.63
2017-12-27T07:01:57.903Z,3.61
2017-12-27T07:04:25.379Z,3.57
2017-12-27T07:06:52.816Z,3.46
2017-12-27T07:09:20.310Z,3.42
2017-12-27T07:11:47.749Z,3.37
2017-12-27T07:14:15.203Z,3.38
2017-12-27T07:16:42.657Z,3.38
2017-12-27T07:19:10.094Z,3.35
2017-12-27T07:21:37.540Z,3.33
2017-12-27T07:24:04.979Z,3.26
2017-12-27T07:26:32.435Z,3.23
2017-12-27T07:28:59.885Z,3.30
2017-12-27T07:31:27.350Z,3.29
2017-12-27T07:33:54.807Z,3.31
2017-12-27T07:36:22.248Z,3.34
2017-12-27T07:38:49.694Z,3.38
2017-12-27T07:41:17.128Z,3.37
2017-12-27T07:43:44.603Z,3.44
2017-12-27T07:46:12.058Z,3.46
2017-12-27T07:48:39.549Z,3.50
2017-12-27T07:51:06.995Z,3.51
2017-12-27T07:53:34.445Z,3.52
2017-12-27T07:56:01.896Z,3.56
2017-12-27T07:58:29.360Z,3.62
2017-12-27T08:00:56.862Z,3.65
2017-12-27T08:03:24.300Z,3.71
2017-12-27T08:05:51.748Z,3.67
2017-12-27T08:08:19.214Z,3.71
2017-12-27T08:10:46.695Z,3.74
2017-12-27T08:13:14.158Z,3.74
2017-12-27T08:15:41.630Z,3.81
2017-12-27T08:18:09.096Z,3.92
2017-12-27T08:20:36.553Z,3.97
2017-12-27T08:23:04.046Z,3.97
2017-12-27T08:25:31.511Z,4.03
2017-12-27T08:27:58.992Z,4.06
2017-12-27T08:30:26.432Z,4.10
2017-12-27T08:32:53.892Z,4.16
2017-12-27T08:35:21.341Z,4.19
2017-12-27T08:37:48.794Z,4.21
2017-12-27T08:40:16.261Z,4.23
2017-12-27T08:42:43.719Z,4.21
2017-12-27T08:45:11.167Z,4.28
2017-12-27T08:47:38.607Z,4.34
2017-12-27T08:50:06.054Z,4.38
2017-12-27T08:52:33.490Z,4.43
2017-12-27T08:55:00.937Z,4.44
2017-12-27T08:57:28.429Z,4.46
2017-12-27T08:59:55.889Z,4.46
2017-12-27T09:02:23.340Z,4.47
2017-12-27T09:04:50.822Z,4.44
2017-12-27T09:07:18.481Z,4.43
2017-12-27T09:09:45.938Z,4.40
2017-12-27T09:12:13.390Z,4.40
2017-12-27T09:14:40.856Z,4.40
2017-12-27T09:17:08.315Z,4.39
2017-12-27T09:19:35.780Z,4.41
2017-12-27T09:22:03.243Z,4.35
2017-12-27T09:24:30.696Z,4.28
2017-12-27T09:26:58.164Z,4.24
2017-12-27T09:29:25.606Z,4.26
2017-12-27T09:31:53.070Z,4.30
2017-12-27T09:34:20.528Z,4.26
2017-12-27T09:36:48.000Z,4.19
2017-12-27T09:39:15.477Z,4.16
2017-12-27T09:41:42.916Z,4.16
2017-12-27T09:44:10.370Z,4.21
2017-12-27T09:46:37.845Z,4.22
2017-12-27T09:49:05.349Z,4.17
2017-12-27T09:51:32.807Z,4.11
2017-12-27T09:54:00.300Z,4.11
2017-12-27T09:56:27.778Z,4.15
2017-12-27T09:58:55.234Z,4.10
2017-12-27T10:01:22.683Z,4.02
2017-12-27T10:03:50.137Z,3.91
2017-12-27T10:06:17.582Z,3.89
2017-12-27T10:08:45.036Z,3.72
2017-12-27T10:11:12.492Z,3.57
2017-12-27T10:13:39.992Z,3.45
2017-12-27T10:16:07.557Z,3.35
2017-12-27T10:18:35.003Z,3.32
2017-12-27T10:21:02.469Z,3.25
2017-12-27T10:23:29.953Z,3.16
2017-12-27T10:25:57.422Z,3.15
2017-12-27T10:28:24.872Z,3.18
2017-12-27T10:30:52.331Z,3.17
2017-12-27T10:33:19.790Z,3.21
2017-12-27T10:35:47.258Z,3.31
2017-12-27T10:38:14.759Z,3.20
2017-12-27T10:40:42.252Z,3.15
2017-12-27T10:43:09.701Z,3.15
2017-12-27T10:45:37.146Z,3.18
2017-12-27T10:48:04.599Z,3.24
2017-12-27T10:50:32.053Z,3.22
2017-12-27T10:52:59.576Z,3.27
2017-12-27T10:55:27.049Z,3.26
2017-12-27T10:57:54.525Z,3.33
2017-12-27T11:00:21.968Z,3.25
2017-12-27T11:02:49.414Z,3.31
2017-12-27T11:05:16.859Z,3.43
2017-12-27T11:07:44.342Z,3.32
2017-12-27T11:10:11.782Z,3.28
2017-12-27T11:12:39.272Z,3.35
2017-12-27T11:15:06.792Z,3.37
2017-12-27T11:17:34.284Z,3.35
2017-12-27T11:20:01.748Z,3.38
2017-12-27T11:22:29.187Z,3.44
2017-12-27T11:24:56.692Z,3.50
2017-12-27T11:27:24.137Z,3.62
2017-12-27T11:29:51.605Z,3.85
2017-12-27T11:32:19.057Z,3.75
2017-12-27T11:34:46.526Z,3.90
2017-12-27T11:37:13.991Z,4.00
2017-12-27T11:39:41.549Z,3.95
2017-12-27T11:42:09.029Z,4.08
2017-12-27T11:44:36.522Z,4.21
2017-12-27T11:47:03.973Z,4.24
2017-12-27T11:49:31.419Z,4.29
2017-12-27T11:51:58.921Z,4.31
2017-12-27T11:54:26.379Z,4.51
2017-12-27T11:56:53.844Z,4.49
2017-12-27T11:59:21.288Z,4.47
2017-12-27T12:01:48.757Z,4.47
2017-12-27T12:04:16.215Z,4.39
2017-12-27T12:06:43.687Z,4.33
2017-12-27T12:09:11.166Z,4.38
2017-12-27T12:11:38.628Z,4.50
2017-12-27T12:14:06.084Z,4.42
2017-12-27T12:16:33.551Z,4.48
2017-12-27T12:19:01.012Z,4.24
2017-12-27T12:21:28.468Z,4.38
2017-12-27T12:23:55.927Z,4.29
2017-12-27T12:26:23.404Z,4.62
2017-12-27T12:28:50.873Z,4.49
2017-12-27T12:31:19.383Z,4.37
2017-12-27T12:33:46.827Z,4.24
2017-12-27T12:36:14.296Z,4.22
2017-12-27T12:38:41.752Z,4.16
2017-12-27T12:41:09.287Z,4.24
2017-12-27T12:43:36.748Z,4.22
2017-12-27T12:46:04.208Z,4.28
2017-12-27T12:48:31.678Z,4.29
2017-12-27T12:50:59.152Z,4.26
2017-12-27T12:53:26.611Z,4.34
2017-12-27T12:55:54.080Z,4.35
2017-12-27T12:58:21.532Z,4.27
2017-12-27T13:00:48.990Z,4.31
2017-12-27T13:03:16.521Z,4.34
2017-12-27T13:05:43.990Z,4.40
2017-12-27T13:08:11.452Z,4.44
2017-12-27T13:10:38.893Z,4.47
2017-12-27T13:13:06.364Z,4.45
2017-12-27T13:15:33.817Z,4.30
2017-12-27T13:18:01.302Z,4.27
2017-12-27T13:20:28.765Z,4.27
2017-12-27T13:22:56.220Z,4.13
2017-12-27T13:25:23.668Z,4.11
2017-12-27T13:27:51.117Z,4.17
2017-12-27T13:30:18.589Z,4.12
2017-12-27T13:32:46.083Z,4.10
2017-12-27T13:35:13.540Z,4.06
2017-12-27T13:37:40.992Z,4.10
2017-12-27T13:40:08.479Z,4.10
2017-12-27T13:42:35.961Z,4.24
2017-12-27T13:45:03.411Z,4.24
2017-12-27T13:47:30.899Z,4.23
2017-12-27T13:49:58.450Z,4.22
2017-12-27T13:52:25.902Z,4.28
2017-12-27T13:54:53.362Z,4.23
2017-12-27T13:57:20.821Z,4.22
2017-12-27T13:59:48.278Z,4.19
2017-12-27T14:02:15.728Z,4.18
2017-12-27T14:04:43.283Z,4.17
2017-12-27T14:07:10.740Z,4.08
2017-12-27T14:09:38.189Z,4.07
2017-12-27T14:12:05.653Z,4.10
2017-12-27T14:14:33.121Z,4.14
2017-12-27T14:17:00.576Z,4.14
2017-12-27T14:19:28.032Z,4.14
2017-12-27T14:21:55.488Z,4.14
2017-12-27T14:24:22.970Z,4.17
2017-12-27T14:26:50.426Z,4.17
2017-12-27T14:29:17.886Z,4.15
2017-12-27T14:31:45.348Z,4.15
2017-12-27T14:34:12.810Z,4.18
2017-12-27T14:36:40.281Z,4.16
2017-12-27T14:39:07.737Z,4.18
2017-12-27T14:41:35.216Z,4.18
2017-12-27T14:44:02.669Z,4.16
2017-12-27T14:46:30.133Z,4.14
2017-12-27T14:48:57.584Z,4.12
2017-12-27T14:51:25.047Z,4.15
2017-12-27T14:53:52.496Z,4.11
2017-12-27T14:56:19.967Z,4.10
2017-12-27T14:58:47.419Z,4.09
2017-12-27T15:01:14.885Z,4.09
2017-12-27T15:03:42.345Z,4.06
2017-12-27T15:06:09.838Z,4.05
2017-12-27T15:08:37.288Z,4.04
2017-12-27T15:11:04.746Z,4.05
2017-12-27T15:13:32.205Z,4.00
2017-12-27T15:15:59.661Z,4.02
2017-12-27T15:18:27.173Z,4.00
2017-12-27T15:20:54.621Z,3.98
2017-12-27T15:23:22.080Z,3.95
2017-12-27T15:25:49.585Z,3.91
2017-12-27T15:28:17.083Z,3.91
2017-12-27T15:30:44.593Z,3.93
2017-12-27T15:33:12.052Z,3.93
2017-12-27T15:35:39.517Z,3.92
2017-12-27T15:38:06.976Z,3.89
2017-12-27T15:40:34.450Z,3.88
2017-12-27T15:43:01.901Z,3.86
2017-12-27T15:45:29.359Z,3.87
2017-12-27T15:47:56.817Z,3.90
2017-12-27T15:50:24.261Z,3.85
2017-12-27T15:52:56.096Z,3.88
2017-12-27T15:55:23.549Z,3.92
2017-12-27T15:57:51.014Z,3.92
2017-12-27T16:00:18.526Z,3.91
2017-12-27T16:02:46.013Z,3.99
2017-12-27T16:05:13.469Z,4.01
2017-12-27T16:07:41.019Z,4.03
2017-12-27T16:10:08.502Z,4.05
2017-12-27T16:12:35.964Z,4.06
2017-12-27T16:15:03.420Z,4.10
2017-12-27T16:17:31.027Z,4.12
2017-12-27T16:19:58.535Z,4.09
2017-12-27T16:22:25.991Z,4.10
2017-12-27T16:24:53.452Z,4.09
2017-12-27T16:27:20.945Z,4.12
2017-12-27T16:29:48.443Z,4.17
2017-12-27T16:32:15.988Z,4.16
2017-12-27T16:34:43.785Z,4.20
2017-12-27T16:37:11.238Z,4.24
2017-12-27T16:39:38.773Z,4.19
2017-12-27T16:42:06.233Z,4.20
2017-12-27T16:44:33.724Z,4.23
2017-12-27T16:47:01.311Z,4.25
2017-12-27T16:49:28.769Z,4.27
2017-12-27T16:51:56.281Z,4.29
2017-12-27T16:54:23.740Z,4.32
2017-12-27T16:56:51.238Z,4.28
2017-12-27T16:59:18.847Z,4.29
2017-12-27T17:01:46.296Z,4.32
2017-12-27T17:04:13.749Z,4.35
2017-12-27T17:06:41.246Z,4.35
2017-12-27T17:09:08.704Z,4.38
2017-12-27T17:11:36.187Z,4.38
2017-12-27T17:14:03.641Z,4.36
2017-12-27T17:16:31.092Z,4.33
2017-12-27T17:18:58.608Z,4.33
2017-12-27T17:21:26.048Z,4.36
2017-12-27T17:23:53.660Z,4.37
2017-12-27T17:26:21.148Z,4.37
2017-12-27T17:28:50.320Z,4.36
2017-12-27T17:31:17.849Z,4.37
2017-12-27T17:33:45.391Z,4.43
2017-12-27T17:36:12.850Z,4.42
2017-12-27T17:38:40.343Z,4.45
2017-12-27T17:41:07.844Z,4.45
2017-12-27T17:43:35.354Z,4.45
2017-12-27T17:46:02.857Z,4.44
2017-12-27T17:48:30.310Z,4.45
2017-12-27T17:50:57.757Z,4.46
2017-12-27T17:53:25.262Z,4.49
2017-12-27T17:55:52.761Z,4.47
2017-12-27T17:58:20.282Z,4.50
2017-12-27T18:00:47.861Z,4.46
2017-12-27T18:03:15.401Z,4.49
2017-12-27T18:05:42.899Z,4.55
2017-12-27T18:08:10.418Z,4.55
2017-12-27T18:10:37.928Z,4.59
2017-12-27T18:13:05.476Z,4.60
2017-12-27T18:15:32.957Z,4.59
2017-12-27T18:18:00.460Z,4.60
2017-12-27T18:20:27.956Z,4.61
2017-12-27T18:22:55.455Z,4.62
2017-12-27T18:25:22.984Z,4.61
2017-12-27T18:27:50.491Z,4.64
2017-12-27T18:30:18.038Z,4.70
2017-12-27T18:32:45.540Z,4.66
2017-12-27T18:35:13.023Z,4.67
2017-12-27T18:37:40.520Z,4.67
2017-12-27T18:40:08.022Z,4.68
2017-12-27T18:42:35.558Z,4.67
2017-12-27T18:45:03.014Z,4.69
2017-12-27T18:47:30.568Z,4.72
2017-12-27T18:49:58.077Z,4.73
2017-12-27T18:52:25.597Z,4.72
2017-12-27T18:54:53.094Z,4.75
2017-12-27T18:57:20.614Z,4.73
2017-12-27T18:59:48.078Z,4.72
2017-12-27T19:02:15.620Z,4.77
2017-12-27T19:04:43.932Z,4.76
2017-12-27T19:07:11.418Z,4.75
2017-12-27T19:09:38.971Z,4.73
2017-12-27T19:12:06.512Z,4.76
2017-12-27T19:14:33.963Z,4.75
2017-12-27T19:17:01.479Z,4.73
2017-12-27T19:19:29.028Z,4.74
2017-12-27T19:21:56.556Z,4.73
2017-12-27T19:24:24.060Z,4.73
2017-12-27T19:26:51.605Z,4.72
2017-12-27T19:29:19.133Z,4.68
2017-12-27T19:31:46.628Z,4.67
2017-12-27T19:34:14.181Z,4.67
2017-12-27T19:36:41.676Z,4.69
2017-12-27T19:39:09.208Z,4.67
2017-12-27T19:41:36.757Z,4.71
2017-12-27T19:44:04.283Z,4.73
2017-12-27T19:46:31.798Z,4.69
2017-12-27T19:48:59.449Z,4.69
2017-12-27T19:51:26.954Z,4.72
2017-12-27T19:53:54.493Z,4.74
2017-12-27T19:56:21.992Z,4.68
2017-12-27T19:58:49.647Z,4.68
2017-12-27T20:01:17.142Z,4.72
2017-12-27T20:03:44.644Z,4.73
2017-12-27T20:06:12.176Z,4.75
2017-12-27T20:08:39.737Z,4.74
2017-12-27T20:11:07.260Z,4.78
2017-12-27T20:13:34.768Z,4.77
2017-12-27T20:16:02.336Z,4.81
2017-12-27T20:18:29.870Z,4.83
2017-12-27T20:20:57.470Z,4.82
2017-12-27T20:23:24.975Z,4.86
2017-12-27T20:25:52.511Z,4.85
2017-12-27T20:28:20.008Z,4.91
2017-12-27T20:30:47.558Z,4.86
2017-12-27T20:33:15.054Z,4.93
2017-12-27T20:35:42.558Z,4.91
2017-12-27T20:38:10.125Z,4.93
2017-12-27T20:40:37.651Z,4.96
2017-12-27T20:43:05.155Z,4.93
2017-12-27T20:45:32.690Z,4.89
2017-12-27T20:48:00.200Z,4.90
2017-12-27T20:50:27.717Z,4.91
2017-12-27T20:52:55.232Z,4.87
2017-12-27T20:55:22.768Z,4.84
2017-12-27T20:57:50.262Z,4.94
2017-12-27T21:02:54.786Z,4.80
2017-12-27T21:05:22.277Z,4.81
2017-12-27T21:07:49.780Z,4.83
2017-12-27T21:10:17.320Z,4.76
2017-12-27T21:12:44.827Z,4.70
2017-12-27T21:15:12.335Z,4.74
2017-12-27T21:17:39.877Z,4.72
2017-12-27T21:20:07.372Z,4.69
2017-12-27T21:22:34.999Z,4.73
2017-12-27T21:25:02.500Z,4.78
2017-12-27T21:27:29.997Z,4.78
2017-12-27T21:29:57.587Z,4.78
2017-12-27T21:32:25.088Z,4.80
2017-12-27T21:34:52.663Z,4.85
2017-12-27T21:37:20.166Z,4.78
2017-12-27T21:39:47.696Z,4.80
2017-12-27T21:42:15.224Z,4.78
2017-12-27T21:44:42.736Z,4.79
2017-12-27T21:47:10.299Z,4.79
2017-12-27T21:52:33.343Z,4.81
2017-12-27T21:55:00.857Z,4.82
2017-12-27T21:57:28.406Z,4.81
2017-12-27T22:03:00.955Z,4.74
2017-12-27T22:05:28.488Z,4.79
2017-12-27T22:07:55.984Z,4.81
2017-12-27T22:10:23.498Z,4.77
2017-12-27T22:12:51.009Z,4.74
2017-12-27T22:15:18.556Z,4.72
2017-12-27T22:17:46.092Z,4.70
2017-12-27T22:20:19.177Z,4.70
2017-12-27T22:22:46.725Z,4.74
2017-12-27T22:25:14.211Z,4.71
2017-12-27T22:27:41.708Z,4.76
2017-12-27T22:30:09.260Z,4.77
2017-12-27T22:32:36.776Z,4.79
2017-12-27T22:35:04.332Z,4.81
2017-12-27T22:37:31.831Z,4.78
2017-12-27T22:39:59.339Z,4.82
2017-12-27T22:42:26.857Z,4.84
2017-12-27T22:44:54.349Z,4.85
2017-12-27T22:47:21.883Z,4.84
2017-12-27T22:49:49.371Z,4.84
2017-12-27T22:52:16.925Z,4.87
2017-12-27T22:54:44.429Z,4.92
2017-12-27T22:57:11.982Z,4.85
2017-12-27T22:59:39.526Z,4.86
2017-12-27T23:02:07.051Z,4.90
2017-12-27T23:04:34.560Z,4.88
2017-12-27T23:07:02.091Z,4.88
2017-12-27T23:09:29.582Z,4.86
2017-12-27T23:11:57.121Z,4.85
2017-12-27T23:14:24.617Z,4.84
2017-12-27T23:16:52.115Z,4.85
2017-12-27T23:19:19.669Z,4.87
2017-12-27T23:21:47.167Z,4.82
2017-12-27T23:24:14.692Z,4.79
2017-12-27T23:26:42.187Z,4.88
2017-12-27T23:29:09.721Z,4.79
2017-12-27T23:31:37.235Z,4.73
2017-12-27T23:34:04.759Z,4.71
2017-12-27T23:36:32.310Z,4.69
2017-12-27T23:38:59.806Z,4.62
2017-12-27T23:41:27.340Z,4.61
2017-12-27T23:43:54.843Z,4.61
2017-12-27T23:46:22.380Z,4.62
2017-12-27T23:48:49.905Z,4.61
2017-12-27T23:51:17.435Z,4.62
2017-12-27T23:53:44.953Z,4.64
2017-12-27T23:56:12.442Z,4.59
2017-12-27T23:58:39.962Z,4.55
